Time;durP1;ratioP1;P1;durP2;ratioP2;P2;SDS_P1;SDS_P2;PMS_P1;PMS_P2;Temp;Humidity;BMP_temperature;BMP_pressure;BME280_temperature;BME280_humidity;BME280_pressure;Samples;Min_cycle;Max_cycle;Signal;HPM_P1;HPM_P2
2023/10/07 00:02:59;;;;;;;15.32;12.25;;;18.00;1.00;;;;;;5038428;28;20028;-75
2023/10/07 00:05:41;;;;;;;16.27;12.32;;;18.00;1.00;;;;;;5041388;28;20025;-75
2023/10/07 00:08:08;;;;;;;16.55;13.48;;;18.00;1.00;;;;;;5036179;28;20025;-76
2023/10/07 00:10:37;;;;;;;18.98;12.80;;;18.00;1.00;;;;;;5039750;28;20049;-75
2023/10/07 00:13:08;;;;;;;21.90;13.60;;;18.00;1.00;;;;;;5039619;28;20032;-76
2023/10/07 00:15:36;;;;;;;18.05;13.52;;;18.00;1.00;;;;;;5035820;28;20481;-76
2023/10/07 00:18:12;;;;;;;17.50;13.18;;;18.00;1.00;;;;;;5042247;28;20504;-75
2023/10/07 00:20:54;;;;;;;16.27;12.82;;;18.00;1.00;;;;;;5042428;28;20020;-76
2023/10/07 00:23:21;;;;;;;17.33;13.90;;;18.00;1.00;;;;;;5041085;28;20017;-75
2023/10/07 00:25:50;;;;;;;16.33;13.07;;;18.00;1.00;;;;;;5044473;28;20067;-75
2023/10/07 00:28:28;;;;;;;20.50;14.07;;;18.00;1.00;;;;;;5043500;28;20017;-75
2023/10/07 00:30:55;;;;;;;21.02;13.52;;;17.90;1.00;;;;;;5041294;28;20372;-76
2023/10/07 00:33:22;;;;;;;19.95;13.15;;;18.00;1.00;;;;;;5047449;28;20032;-75
2023/10/07 00:35:51;;;;;;;19.20;13.13;;;17.90;1.00;;;;;;5042440;28;20373;-75
2023/10/07 00:38:21;;;;;;;17.67;13.45;;;17.90;1.00;;;;;;5046443;28;20487;-75
2023/10/07 00:40:57;;;;;;;19.98;13.57;;;17.90;1.00;;;;;;5042808;28;20017;-75
2023/10/07 00:43:27;;;;;;;18.85;12.82;;;17.80;1.00;;;;;;5039948;28;20021;-75
2023/10/07 00:46:00;;;;;;;20.80;14.15;;;17.90;1.00;;;;;;5045685;28;20096;-76
2023/10/07 00:48:42;;;;;;;17.95;13.82;;;17.80;1.00;;;;;;5039120;28;20395;-76
2023/10/07 00:51:11;;;;;;;21.23;13.55;;;17.80;1.00;;;;;;5036815;28;20021;-75
2023/10/07 00:53:46;;;;;;;20.95;13.63;;;17.80;1.00;;;;;;5046165;28;20029;-75
2023/10/07 00:56:15;;;;;;;20.17;14.15;;;17.80;1.00;;;;;;5044615;28;20074;-75
2023/10/07 00:58:42;;;;;;;23.15;14.07;;;17.80;1.00;;;;;;5044479;28;20056;-75
2023/10/07 01:01:12;;;;;;;22.42;13.73;;;17.80;1.00;;;;;;5045355;28;20017;-75
2023/10/07 01:03:47;;;;;;;20.17;14.55;;;17.80;1.00;;;;;;5042822;28;20426;-76
2023/10/07 01:06:26;;;;;;;16.70;14.07;;;17.80;1.00;;;;;;5040835;28;20028;-75
2023/10/07 01:09:07;;;;;;;20.70;13.98;;;17.80;1.00;;;;;;5039729;28;20116;-76
2023/10/07 01:11:38;;;;;;;22.35;14.20;;;17.80;1.00;;;;;;5041966;28;20150;-75
2023/10/07 01:14:05;;;;;;;18.27;13.90;;;17.80;1.00;;;;;;5042798;28;20021;-75
2023/10/07 01:16:44;;;;;;;20.45;13.45;;;17.80;1.00;;;;;;5043683;28;20028;-75
2023/10/07 01:19:19;;;;;;;18.38;12.98;;;17.80;1.00;;;;;;5042638;28;20030;-76
2023/10/07 01:21:55;;;;;;;18.17;14.32;;;17.80;1.00;;;;;;5044143;28;20094;-76
2023/10/07 01:24:34;;;;;;;18.58;14.38;;;17.80;1.00;;;;;;5045910;28;20064;-76
2023/10/07 01:27:18;;;;;;;23.88;15.10;;;17.70;1.00;;;;;;5048966;28;20376;-75
2023/10/07 01:29:44;;;;;;;19.75;14.05;;;17.70;1.00;;;;;;5040098;28;20479;-75
2023/10/07 01:32:15;;;;;;;18.92;13.40;;;17.70;1.00;;;;;;5044208;28;20021;-76
2023/10/07 01:34:48;;;;;;;16.80;13.33;;;17.70;1.00;;;;;;5042152;28;20013;-76
2023/10/07 01:37:21;;;;;;;19.05;13.93;;;17.70;1.00;;;;;;5043143;28;20055;-75
2023/10/07 01:39:52;;;;;;;16.98;13.38;;;17.70;1.00;;;;;;5041912;28;20121;-75
2023/10/07 01:42:42;;;;;;;17.55;13.73;;;17.70;1.00;;;;;;5037249;28;20025;-75
2023/10/07 01:45:34;;;;;;;19.02;14.07;;;17.60;1.00;;;;;;5037284;28;20021;-75
2023/10/07 01:47:57;;;;;;;19.77;14.35;;;17.60;1.00;;;;;;5037419;28;20126;-75
2023/10/07 01:50:24;;;;;;;22.23;14.32;;;17.60;1.00;;;;;;5045921;28;20487;-75
2023/10/07 01:52:53;;;;;;;20.15;13.90;;;17.60;1.00;;;;;;5043240;28;20453;-75
2023/10/07 01:55:19;;;;;;;18.60;14.15;;;17.60;1.00;;;;;;5045744;28;20021;-75
2023/10/07 01:57:48;;;;;;;20.52;13.93;;;17.60;1.00;;;;;;5046459;28;20048;-75
2023/10/07 02:00:34;;;;;;;17.10;13.63;;;17.60;1.00;;;;;;5037759;28;20021;-75
2023/10/07 02:03:02;;;;;;;17.17;13.52;;;17.60;1.00;;;;;;5044264;28;20068;-75
2023/10/07 02:05:40;;;;;;;18.58;14.48;;;17.60;1.00;;;;;;5045649;28;20108;-76
2023/10/07 02:08:11;;;;;;;20.15;14.00;;;17.60;1.00;;;;;;5044705;28;20028;-75
2023/10/07 02:10:41;;;;;;;18.13;14.32;;;17.50;1.00;;;;;;5038980;28;20080;-76
2023/10/07 02:13:15;;;;;;;19.23;13.88;;;17.60;1.00;;;;;;5043799;28;20118;-75
2023/10/07 02:15:44;;;;;;;23.75;14.35;;;17.60;1.00;;;;;;5044772;28;20147;-76
2023/10/07 02:18:16;;;;;;;21.35;14.27;;;17.60;1.00;;;;;;5038554;28;20052;-76
2023/10/07 02:21:06;;;;;;;18.35;14.35;;;17.60;1.00;;;;;;5041938;28;20111;-76
2023/10/07 02:23:43;;;;;;;23.35;13.95;;;17.60;1.00;;;;;;5041582;28;20017;-75
2023/10/07 02:26:19;;;;;;;18.35;14.43;;;17.60;1.00;;;;;;5041317;28;20031;-75
2023/10/07 02:28:50;;;;;;;16.42;13.43;;;17.50;1.00;;;;;;5043845;28;20048;-76
2023/10/07 02:31:18;;;;;;;18.17;13.27;;;17.50;1.00;;;;;;5040157;28;20392;-75
2023/10/07 02:33:45;;;;;;;18.80;14.15;;;17.50;1.00;;;;;;5043881;28;20025;-76
2023/10/07 02:36:28;;;;;;;19.63;14.45;;;17.50;1.00;;;;;;5043708;28;20031;-76
2023/10/07 02:39:03;;;;;;;21.98;14.48;;;17.50;1.00;;;;;;5033471;28;20091;-76
2023/10/07 02:41:31;;;;;;;16.20;13.55;;;17.40;2.90;;;;;;5043315;28;20025;-76
2023/10/07 02:44:03;;;;;;;18.30;13.68;;;17.40;5.60;;;;;;5041269;28;20028;-75
2023/10/07 02:46:32;;;;;;;18.25;14.00;;;17.40;5.90;;;;;;5042970;28;20071;-75
2023/10/07 02:49:05;;;;;;;18.35;13.60;;;17.40;6.90;;;;;;5041374;28;20033;-76
2023/10/07 02:51:39;;;;;;;20.83;15.15;;;17.40;10.60;;;;;;5044439;28;20068;-76
2023/10/07 02:54:07;;;;;;;16.77;13.50;;;17.30;12.30;;;;;;5043821;28;20383;-75
2023/10/07 02:56:44;;;;;;;19.48;14.27;;;17.30;14.00;;;;;;5043458;28;20025;-75
2023/10/07 02:59:24;;;;;;;19.05;13.82;;;17.40;9.10;;;;;;5035680;28;20164;-76
2023/10/07 03:04:36;;;;;;;18.15;13.38;;;17.40;6.40;;;;;;5042710;28;20433;-76
2023/10/07 03:07:14;;;;;;;18.42;14.60;;;17.40;7.10;;;;;;5040540;28;20029;-76
2023/10/07 03:12:29;;;;;;;21.27;14.27;;;17.40;8.60;;;;;;5040034;28;20044;-76
2023/10/07 03:15:00;;;;;;;22.33;14.35;;;17.40;7.20;;;;;;5041693;28;20399;-75
2023/10/07 03:17:39;;;;;;;18.83;14.40;;;17.40;9.80;;;;;;5047971;28;20036;-75
2023/10/07 03:28:20;;;;;;;21.13;14.27;;;17.40;7.50;;;;;;5041215;28;20373;-75
2023/10/07 03:30:55;;;;;;;17.80;13.77;;;17.40;7.70;;;;;;5041857;28;20029;-75
2023/10/07 03:41:52;;;;;;;17.65;13.90;;;17.40;3.10;;;;;;5032846;28;20467;-75
2023/10/07 03:44:20;;;;;;;19.75;14.75;;;17.50;2.50;;;;;;5039819;28;20036;-75
2023/10/07 03:46:48;;;;;;;19.58;15.52;;;17.50;1.00;;;;;;5037103;28;20105;-75
2023/10/07 03:49:21;;;;;;;20.63;13.88;;;17.50;2.50;;;;;;5040113;28;20025;-75
2023/10/07 03:51:48;;;;;;;18.75;14.20;;;17.50;1.00;;;;;;5029662;28;20033;-75
2023/10/07 03:54:24;;;;;;;20.80;15.10;;;17.50;2.40;;;;;;5042146;28;20427;-75
2023/10/07 03:56:51;;;;;;;17.17;14.23;;;17.40;1.00;;;;;;5041791;28;20045;-75
2023/10/07 03:59:18;;;;;;;19.48;14.55;;;17.50;1.60;;;;;;5038349;28;20029;-75
2023/10/07 04:01:44;;;;;;;22.10;14.55;;;17.50;1.00;;;;;;5038641;28;20059;-75
2023/10/07 04:04:12;;;;;;;15.52;13.60;;;17.50;5.20;;;;;;5035728;28;20025;-75
2023/10/07 04:06:38;;;;;;;17.42;13.77;;;17.50;3.00;;;;;;5040713;28;20096;-76
2023/10/07 04:09:08;;;;;;;17.00;13.50;;;17.50;1.00;;;;;;5043496;28;20053;-76
2023/10/07 04:11:48;;;;;;;19.48;14.57;;;17.50;2.70;;;;;;5040543;28;20048;-76
2023/10/07 04:14:22;;;;;;;18.02;14.38;;;17.40;5.80;;;;;;5057170;28;20044;-75
2023/10/07 04:16:52;;;;;;;17.63;14.10;;;17.50;6.80;;;;;;5041894;28;20033;-75
2023/10/07 04:21:45;;;;;;;18.42;14.63;;;17.40;10.40;;;;;;5043778;28;20028;-76
2023/10/07 04:24:12;;;;;;;19.23;14.77;;;17.40;7.70;;;;;;5041326;28;20021;-75
2023/10/07 04:26:51;;;;;;;21.92;14.15;;;17.30;12.10;;;;;;5041847;28;20013;-75
2023/10/07 04:29:18;;;;;;;19.15;13.65;;;17.30;14.60;;;;;;5032696;28;20053;-75
2023/10/07 04:31:57;;;;;;;19.58;14.60;;;17.30;12.70;;;;;;5039634;28;20025;-76
2023/10/07 04:34:24;;;;;;;20.10;14.68;;;17.40;11.10;;;;;;5036708;28;20483;-75
2023/10/07 04:42:21;;;;;;;21.02;15.45;;;17.40;1.00;;;;;;5041391;28;20107;-75
2023/10/07 04:49:58;;;;;;;18.20;13.85;;;17.40;1.20;;;;;;5035836;28;20510;-76
2023/10/07 04:52:30;;;;;;;20.25;14.10;;;17.40;1.00;;;;;;5042035;28;20075;-75
2023/10/07 04:54:59;;;;;;;;;;;17.40;1.00;;;;;;5040211;28;20021;-76
2023/10/07 05:03:02;;;;;;;18.20;14.00;;;17.30;10.50;;;;;;5014495;28;20025;-76
2023/10/07 05:05:33;;;;;;;21.02;14.02;;;17.20;8.70;;;;;;5026513;28;20034;-76
2023/10/07 05:08:08;;;;;;;15.83;13.47;;;17.30;3.50;;;;;;5039517;28;20025;-76
2023/10/07 05:10:41;;;;;;;17.48;14.23;;;17.30;3.80;;;;;;5045057;28;20266;-76
2023/10/07 05:13:08;;;;;;;18.10;13.98;;;17.20;6.80;;;;;;5039812;28;20399;-76
2023/10/07 05:15:41;;;;;;;15.82;13.40;;;17.20;8.20;;;;;;5039739;28;20033;-76
2023/10/07 05:18:16;;;;;;;17.42;13.00;;;17.20;6.30;;;;;;5039425;28;20112;-76
2023/10/07 05:20:46;;;;;;;20.58;14.77;;;17.20;7.50;;;;;;5038408;28;20024;-76
2023/10/07 05:23:17;;;;;;;15.93;13.30;;;17.20;6.70;;;;;;5044090;28;20028;-76
2023/10/07 05:25:49;;;;;;;17.42;12.52;;;17.20;5.20;;;;;;5041777;28;20368;-76
2023/10/07 05:28:22;;;;;;;20.70;14.18;;;17.20;2.30;;;;;;5047145;28;20025;-76
2023/10/07 05:30:52;;;;;;;16.58;14.07;;;17.20;4.00;;;;;;5045660;28;20025;-76
2023/10/07 05:33:26;;;;;;;16.77;13.55;;;17.20;5.90;;;;;;5040283;28;20056;-76
2023/10/07 05:36:14;;;;;;;15.48;13.18;;;17.10;5.50;;;;;;5042708;28;20032;-75
2023/10/07 05:38:40;;;;;;;16.70;13.50;;;17.00;8.80;;;;;;5042465;28;20060;-75
2023/10/07 05:41:12;;;;;;;16.02;14.00;;;17.10;9.70;;;;;;5043326;28;20483;-76
2023/10/07 05:43:39;;;;;;;17.38;13.38;;;17.00;8.90;;;;;;5031516;28;20102;-75
2023/10/07 05:46:05;;;;;;;22.27;13.23;;;17.00;9.20;;;;;;5042924;28;20487;-76
2023/10/07 05:48:32;;;;;;;18.70;12.52;;;17.10;10.30;;;;;;5043838;28;20021;-76
2023/10/07 05:51:02;;;;;;;20.05;14.00;;;17.00;11.00;;;;;;5039714;28;20434;-75
2023/10/07 05:53:29;;;;;;;15.88;13.18;;;17.10;6.10;;;;;;5044268;28;20388;-76
2023/10/07 05:55:54;;;;;;;22.55;14.43;;;17.00;7.00;;;;;;5043852;28;20480;-76
2023/10/07 05:58:21;;;;;;;16.45;12.60;;;17.00;5.40;;;;;;5041959;28;20056;-76
2023/10/07 06:00:46;;;;;;;16.60;13.70;;;17.00;4.30;;;;;;5042621;28;20033;-76
2023/10/07 06:03:12;;;;;;;16.40;13.30;;;17.00;8.90;;;;;;5042894;28;20078;-75
2023/10/07 06:05:38;;;;;;;21.42;13.55;;;17.10;5.40;;;;;;5042546;28;20025;-75
2023/10/07 06:08:05;;;;;;;14.75;12.55;;;17.00;1.20;;;;;;5041738;28;20072;-76
2023/10/07 06:10:34;;;;;;;16.13;13.27;;;17.10;1.00;;;;;;5042133;28;20029;-76
2023/10/07 06:13:08;;;;;;;21.80;13.35;;;17.10;1.00;;;;;;5042469;28;20052;-76
2023/10/07 06:15:37;;;;;;;17.08;12.70;;;17.10;1.00;;;;;;5044796;28;20072;-76
2023/10/07 06:18:07;;;;;;;14.55;13.02;;;17.20;1.00;;;;;;5038454;28;20068;-76
2023/10/07 06:20:37;;;;;;;15.43;12.95;;;17.20;1.00;;;;;;5043319;28;20013;-75
2023/10/07 06:23:16;;;;;;;16.90;12.90;;;17.30;1.00;;;;;;5044274;28;20021;-75
2023/10/07 06:25:48;;;;;;;20.42;13.55;;;17.30;1.00;;;;;;5040220;28;20365;-75
2023/10/07 06:31:28;;;;;;;18.58;13.48;;;17.20;1.00;;;;;;5038344;28;20043;-75
2023/10/07 06:34:00;;;;;;;20.38;13.10;;;17.30;1.00;;;;;;5035815;28;20463;-75
2023/10/07 06:36:26;;;;;;;;;;;17.20;1.00;;;;;;5038464;28;20553;-75
2023/10/07 06:38:53;;;;;;;18.92;12.65;;;17.30;1.00;;;;;;5043729;28;19963;-76
2023/10/07 06:41:20;;;;;;;17.13;12.75;;;17.30;1.00;;;;;;5043011;28;20044;-75
2023/10/07 06:43:50;;;;;;;15.45;12.30;;;17.30;3.30;;;;;;5042109;28;20029;-75
2023/10/07 06:46:20;;;;;;;20.45;11.90;;;17.30;1.00;;;;;;5044569;28;20381;-75
2023/10/07 06:48:48;;;;;;;18.77;12.50;;;17.40;1.00;;;;;;5044488;28;20028;-75
2023/10/07 06:51:15;;;;;;;16.33;13.15;;;17.50;1.00;;;;;;5043055;28;20028;-75
2023/10/07 06:53:43;;;;;;;16.42;12.77;;;17.50;3.00;;;;;;5045111;28;20163;-75
2023/10/07 06:56:13;;;;;;;13.02;11.70;;;17.50;3.90;;;;;;5041404;28;20036;-75
2023/10/07 06:58:39;;;;;;;16.25;12.52;;;17.50;12.70;;;;;;5041503;28;20498;-75
2023/10/07 07:01:22;;;;;;;15.52;11.98;;;17.60;3.10;;;;;;5042673;28;20252;-75
2023/10/07 07:03:48;;;;;;;17.98;11.40;;;17.70;1.00;;;;;;5033212;28;20024;-75
2023/10/07 07:06:17;;;;;;;14.68;11.77;;;17.80;1.00;;;;;;5040388;28;20100;-75
2023/10/07 07:08:44;;;;;;;16.65;13.15;;;17.80;1.00;;;;;;5042902;28;20029;-75
2023/10/07 07:11:11;;;;;;;15.77;11.90;;;17.80;1.00;;;;;;5043337;28;20071;-76
2023/10/07 07:13:40;;;;;;;19.25;13.00;;;17.90;1.00;;;;;;5040488;28;20021;-76
2023/10/07 07:16:08;;;;;;;15.55;11.85;;;17.90;8.20;;;;;;5041787;28;20025;-76
2023/10/07 07:18:39;;;;;;;18.38;12.63;;;18.00;9.60;;;;;;5042111;28;20503;-75
2023/10/07 07:23:51;;;;;;;14.80;12.88;;;18.00;13.80;;;;;;5042166;28;20067;-75
2023/10/07 07:26:21;;;;;;;16.83;12.52;;;18.10;1.00;;;;;;5044130;28;20100;-75
2023/10/07 07:28:47;;;;;;;19.90;12.90;;;18.10;1.00;;;;;;5035219;28;20110;-75
2023/10/07 07:31:18;;;;;;;17.42;11.88;;;18.10;1.00;;;;;;5041466;28;20037;-75
2023/10/07 07:33:48;;;;;;;19.02;12.68;;;18.20;1.00;;;;;;5041065;28;20511;-75
2023/10/07 07:36:39;;;;;;;17.80;12.98;;;18.20;1.00;;;;;;5038658;28;20037;-76
2023/10/07 07:39:17;;;;;;;16.70;13.32;;;18.30;1.00;;;;;;5036190;28;20029;-75
2023/10/07 07:41:55;;;;;;;16.17;12.70;;;18.30;1.00;;;;;;5041218;28;20021;-75
2023/10/07 07:44:32;;;;;;;17.00;12.57;;;18.30;1.00;;;;;;5024274;28;20501;-75
2023/10/07 07:47:06;;;;;;;19.83;12.48;;;18.40;1.00;;;;;;5042908;28;20017;-75
2023/10/07 07:49:36;;;;;;;18.38;12.43;;;18.40;1.00;;;;;;5038089;28;20544;-75
2023/10/07 07:52:02;;;;;;;18.33;12.52;;;18.40;1.00;;;;;;5042759;28;20113;-75
2023/10/07 07:54:29;;;;;;;19.58;12.88;;;18.40;1.00;;;;;;5041504;28;20029;-75
2023/10/07 07:56:55;;;;;;;16.73;12.80;;;18.50;1.00;;;;;;5041584;28;20074;-75
2023/10/07 07:59:21;;;;;;;18.52;12.90;;;18.50;1.00;;;;;;5030943;28;20479;-75
2023/10/07 08:02:02;;;;;;;20.17;12.23;;;18.60;1.00;;;;;;5044590;28;20028;-75
2023/10/07 08:04:49;;;;;;;22.67;13.23;;;18.70;1.00;;;;;;5033472;28;20025;-75
2023/10/07 08:07:24;;;;;;;19.65;13.30;;;18.70;99.90;;;;;;5037327;28;20026;-75
2023/10/07 08:09:55;;;;;;;14.23;12.18;;;18.80;99.90;;;;;;5035864;28;20030;-75
2023/10/07 08:12:34;;;;;;;20.42;13.18;;;18.80;1.00;;;;;;5039235;28;20079;-76
2023/10/07 08:15:14;;;;;;;17.88;12.60;;;18.80;1.00;;;;;;5036117;28;20074;-75
2023/10/07 08:17:44;;;;;;;20.08;13.85;;;18.80;1.00;;;;;;5035783;28;20436;-75
2023/10/07 08:20:11;;;;;;;21.25;13.43;;;18.90;1.00;;;;;;5042367;28;20017;-75
2023/10/07 08:22:45;;;;;;;20.00;12.25;;;18.90;1.00;;;;;;5041201;28;20067;-75
2023/10/07 08:25:25;;;;;;;18.35;12.90;;;19.00;99.90;;;;;;5040022;28;20017;-75
2023/10/07 08:27:52;;;;;;;23.00;13.13;;;19.00;99.90;;;;;;5040757;28;20071;-75
2023/10/07 08:33:05;;;;;;;16.63;12.27;;;19.10;99.90;;;;;;5036005;28;20076;-75
2023/10/07 08:35:34;;;;;;;21.35;13.45;;;19.10;99.90;;;;;;5038464;28;20021;-75
2023/10/07 08:38:19;;;;;;;16.48;11.93;;;19.20;99.90;;;;;;5035921;28;20025;-75
2023/10/07 08:40:51;;;;;;;17.20;11.88;;;19.20;99.90;;;;;;5043583;28;20421;-75
2023/10/07 08:43:25;;;;;;;27.80;14.25;;;19.30;99.90;;;;;;5037109;28;20084;-75
2023/10/07 08:45:51;;;;;;;20.42;12.75;;;19.30;99.90;;;;;;5040074;28;20106;-75
2023/10/07 08:48:17;;;;;;;21.98;13.73;;;19.30;99.90;;;;;;5042774;28;20029;-75
2023/10/07 08:51:10;;;;;;;21.40;12.95;;;19.30;99.90;;;;;;5039593;28;20033;-75
2023/10/07 08:53:31;;;;;;;17.38;11.38;;;19.30;1.00;;;;;;5038884;28;20555;-75
2023/10/07 08:55:57;;;;;;;17.55;13.02;;;19.40;1.00;;;;;;5042032;28;20025;-75
2023/10/07 08:58:27;;;;;;;20.77;12.52;;;19.40;1.00;;;;;;5045164;28;20049;-76
2023/10/07 09:00:55;;;;;;;17.25;12.38;;;19.40;1.00;;;;;;5045144;28;20018;-75
2023/10/07 09:03:26;;;;;;;15.35;12.25;;;19.50;1.00;;;;;;5043051;28;20075;-75
2023/10/07 09:05:52;;;;;;;18.03;12.77;;;19.50;99.90;;;;;;5043851;28;20021;-76
2023/10/07 09:08:22;;;;;;;17.95;12.65;;;19.60;99.90;;;;;;5045196;28;20499;-75
2023/10/07 09:10:50;;;;;;;24.42;14.77;;;19.60;99.90;;;;;;5045226;28;20029;-76
2023/10/07 09:13:31;;;;;;;16.75;13.20;;;19.70;99.90;;;;;;5041946;28;20079;-75
2023/10/07 09:15:59;;;;;;;21.23;13.80;;;19.70;99.90;;;;;;5044335;28;20035;-75
2023/10/07 09:18:34;;;;;;;22.17;13.05;;;19.70;99.90;;;;;;5044316;28;20036;-75
2023/10/07 09:21:06;;;;;;;16.25;12.85;;;19.70;99.90;;;;;;5044560;28;20025;-76
2023/10/07 09:23:47;;;;;;;16.38;13.07;;;19.80;99.90;;;;;;5046985;28;20025;-75
2023/10/07 09:26:56;;;;;;;18.27;13.55;;;19.90;99.90;;;;;;5044392;28;20078;-75
2023/10/07 09:29:16;;;;;;;19.08;12.73;;;20.00;99.90;;;;;;5041487;28;20498;-75
2023/10/07 09:31:43;;;;;;;15.65;12.57;;;20.00;1.00;;;;;;5046052;28;20013;-75
2023/10/07 09:34:29;;;;;;;16.08;12.30;;;20.00;99.90;;;;;;5043141;28;20029;-75
2023/10/07 09:36:57;;;;;;;15.30;12.48;;;20.10;99.90;;;;;;5037421;28;20034;-75
2023/10/07 09:47:37;;;;;;;22.80;13.73;;;20.40;99.90;;;;;;5044771;28;20022;-75
2023/10/07 09:50:25;;;;;;;22.77;14.05;;;20.50;99.90;;;;;;5042317;28;20021;-76
2023/10/07 09:53:13;;;;;;;22.63;12.77;;;20.50;99.90;;;;;;5036481;28;20026;-76
2023/10/07 09:56:29;;;;;;;24.02;13.93;;;20.60;99.90;;;;;;5044997;28;20017;-75
2023/10/07 09:59:22;;;;;;;24.63;15.43;;;20.60;99.90;;;;;;5022468;28;20037;-75
2023/10/07 10:02:25;;;;;;;17.58;14.00;;;20.60;99.90;;;;;;5022815;28;20457;-75
2023/10/07 10:05:28;;;;;;;21.30;13.75;;;20.60;99.90;;;;;;5040300;28;20033;-75
2023/10/07 10:08:21;;;;;;;21.02;13.95;;;20.70;99.90;;;;;;5039770;28;20379;-75
2023/10/07 10:10:49;;;;;;;23.40;14.52;;;20.70;99.90;;;;;;5073088;28;20017;-75
2023/10/07 10:13:29;;;;;;;20.45;14.20;;;20.70;99.90;;;;;;5041207;28;20032;-75
2023/10/07 10:16:00;;;;;;;22.98;14.85;;;20.70;99.90;;;;;;5044307;28;20074;-73
2023/10/07 10:18:38;;;;;;;28.20;15.82;;;20.70;99.90;;;;;;5017646;28;20059;-73
2023/10/07 10:21:09;;;;;;;20.08;14.23;;;20.70;99.90;;;;;;5041238;28;20127;-75
2023/10/07 10:23:38;;;;;;;18.10;12.70;;;20.70;99.90;;;;;;5038305;28;20024;-75
2023/10/07 10:26:24;;;;;;;16.88;12.95;;;20.80;99.90;;;;;;5043955;28;20036;-73
2023/10/07 10:29:20;;;;;;;19.38;12.88;;;20.90;99.90;;;;;;5042871;28;20071;-75
2023/10/07 10:31:50;;;;;;;17.27;12.00;;;20.90;99.90;;;;;;5039343;28;20032;-75
2023/10/07 10:34:16;;;;;;;14.00;9.80;;;20.90;99.90;;;;;;5042141;28;20028;-75
2023/10/07 10:36:49;;;;;;;13.07;9.10;;;21.00;99.90;;;;;;5044765;28;20649;-76
2023/10/07 10:39:26;;;;;;;13.43;8.68;;;21.30;99.90;;;;;;5038138;28;20035;-76
2023/10/07 10:41:54;;;;;;;12.93;8.70;;;21.40;99.90;;;;;;5041449;28;20032;-75
2023/10/07 10:44:20;;;;;;;12.15;9.25;;;21.60;1.00;;;;;;5040264;28;20041;-75
2023/10/07 10:46:51;;;;;;;12.85;9.40;;;21.60;1.00;;;;;;5045214;28;20022;-75
2023/10/07 10:49:21;;;;;;;12.23;9.27;;;21.70;1.00;;;;;;5042487;28;20013;-76
2023/10/07 10:51:54;;;;;;;11.98;9.05;;;21.80;1.00;;;;;;5040541;28;20029;-73
2023/10/07 10:54:22;;;;;;;9.98;8.52;;;22.00;1.00;;;;;;5039674;28;20025;-76
2023/10/07 10:56:57;;;;;;;11.25;8.75;;;22.10;99.90;;;;;;5047139;28;20040;-75
2023/10/07 10:59:53;;;;;;;9.82;8.20;;;22.20;99.90;;;;;;5047920;28;20021;-76
2023/10/07 11:02:22;;;;;;;13.88;9.82;;;22.30;99.90;;;;;;5038636;28;20490;-75
2023/10/07 11:04:56;;;;;;;13.77;10.48;;;22.30;99.90;;;;;;5041127;28;20455;-76
2023/10/07 11:07:23;;;;;;;12.98;9.88;;;22.30;99.90;;;;;;5044071;28;20028;-76
2023/10/07 11:09:51;;;;;;;15.43;11.65;;;22.40;99.90;;;;;;5040474;28;20570;-76
2023/10/07 11:12:18;;;;;;;18.13;15.10;;;22.40;99.90;;;;;;5042303;28;20470;-76
2023/10/07 11:14:47;;;;;;;25.00;16.58;;;22.40;99.90;;;;;;5040846;28;20048;-73
2023/10/07 11:17:15;;;;;;;24.58;17.65;;;22.40;99.90;;;;;;5040835;28;20087;-73
2023/10/07 11:19:51;;;;;;;33.38;21.85;;;22.50;99.90;;;;;;5036109;28;20421;-73
2023/10/07 11:22:21;;;;;;;30.10;18.75;;;22.40;1.00;;;;;;5041964;28;20021;-76
2023/10/07 11:24:50;;;;;;;36.53;23.35;;;22.50;1.00;;;;;;5038600;28;20407;-76
2023/10/07 11:27:17;;;;;;;33.42;22.77;;;22.60;1.00;;;;;;5040576;28;20495;-75
2023/10/07 11:29:56;;;;;;;34.58;23.98;;;22.70;15.00;;;;;;5038597;28;20079;-73
2023/10/07 11:32:29;;;;;;;34.20;22.48;;;22.70;1.00;;;;;;5040006;28;20033;-73
2023/10/07 11:34:55;;;;;;;35.30;23.73;;;22.80;1.00;;;;;;5040946;28;20031;-73
2023/10/07 11:37:23;;;;;;;33.30;21.98;;;22.80;1.00;;;;;;5042212;28;20387;-73
2023/10/07 11:39:50;;;;;;;32.25;22.75;;;22.80;4.50;;;;;;5036617;28;20029;-73
2023/10/07 11:42:18;;;;;;;38.35;25.15;;;22.80;1.00;;;;;;5043733;28;20021;-73
2023/10/07 11:44:49;;;;;;;37.38;24.75;;;22.90;1.00;;;;;;5039760;28;20399;-73
2023/10/07 11:47:15;;;;;;;41.47;28.87;;;22.90;1.00;;;;;;5040131;28;20099;-73
2023/10/07 11:49:42;;;;;;;38.85;25.38;;;22.90;1.00;;;;;;5040631;28;20268;-73
2023/10/07 11:52:07;;;;;;;33.85;23.92;;;22.90;1.00;;;;;;5041988;28;20029;-73
2023/10/07 11:54:40;;;;;;;36.72;26.27;;;22.90;1.00;;;;;;5026827;28;20083;-73
2023/10/07 11:57:06;;;;;;;39.42;26.33;;;22.90;1.00;;;;;;5044722;28;20498;-73
2023/10/07 11:59:35;;;;;;;34.92;22.92;;;23.00;1.00;;;;;;5040944;28;20475;-73
2023/10/07 12:02:09;;;;;;;33.50;24.08;;;23.00;1.00;;;;;;5039611;28;20025;-75
2023/10/07 12:04:41;;;;;;;35.83;21.92;;;23.10;1.00;;;;;;5041911;28;20048;-75
2023/10/07 12:07:08;;;;;;;43.25;28.08;;;23.10;1.00;;;;;;5041195;28;20072;-73
2023/10/07 12:09:34;;;;;;;44.70;28.45;;;23.20;99.90;;;;;;5036856;28;20091;-73
2023/10/07 12:12:06;;;;;;;43.50;27.52;;;23.20;1.00;;;;;;5038104;28;20029;-73
2023/10/07 12:14:33;;;;;;;41.17;26.92;;;23.20;1.00;;;;;;5039833;28;20017;-73
2023/10/07 12:16:58;;;;;;;49.20;28.05;;;23.20;1.00;;;;;;5040195;28;20021;-73
2023/10/07 12:19:25;;;;;;;38.40;25.98;;;23.20;99.90;;;;;;5041659;28;20036;-73
2023/10/07 12:21:56;;;;;;;47.65;26.27;;;23.30;1.00;;;;;;5041501;28;20025;-73
2023/10/07 12:24:21;;;;;;;45.13;28.83;;;23.30;99.90;;;;;;5040298;28;20063;-73
2023/10/07 12:26:50;;;;;;;43.13;26.33;;;23.30;99.90;;;;;;5047284;28;20569;-73
2023/10/07 12:29:19;;;;;;;42.28;27.23;;;23.30;1.00;;;;;;5043525;28;20017;-73
2023/10/07 12:31:45;;;;;;;43.55;28.38;;;23.30;1.00;;;;;;5042402;28;20026;-73
2023/10/07 12:34:14;;;;;;;45.90;30.33;;;23.30;1.00;;;;;;5046467;28;20033;-73
2023/10/07 12:36:40;;;;;;;48.78;30.20;;;23.30;1.00;;;;;;5045364;28;20041;-73
2023/10/07 12:39:10;;;;;;;60.83;32.25;;;23.30;1.00;;;;;;5044683;28;20030;-73
2023/10/07 12:41:39;;;;;;;54.42;34.08;;;23.30;1.00;;;;;;5046983;28;20053;-73
2023/10/07 12:44:11;;;;;;;48.05;34.03;;;23.40;1.00;;;;;;5043041;28;20017;-73
2023/10/07 12:46:38;;;;;;;52.03;32.03;;;23.40;1.00;;;;;;5045485;28;20036;-73
2023/10/07 12:49:10;;;;;;;49.50;31.75;;;23.40;1.00;;;;;;5044283;28;20092;-73
2023/10/07 12:51:41;;;;;;;50.90;33.42;;;23.50;1.00;;;;;;5040147;28;20495;-73
2023/10/07 12:54:10;;;;;;;51.33;34.30;;;23.50;1.00;;;;;;5045247;28;20390;-73
2023/10/07 12:56:38;;;;;;;50.53;33.00;;;23.50;1.00;;;;;;5046473;28;20025;-73
2023/10/07 12:59:17;;;;;;;50.90;33.67;;;23.50;1.00;;;;;;5046348;28;20582;-73
2023/10/07 13:01:56;;;;;;;50.65;32.63;;;23.50;1.00;;;;;;5043799;28;20544;-73
2023/10/07 13:04:25;;;;;;;47.53;30.98;;;23.50;1.00;;;;;;5040710;28;20017;-73
2023/10/07 13:07:03;;;;;;;55.33;33.40;;;23.60;1.00;;;;;;5047097;28;20027;-73
2023/10/07 13:09:33;;;;;;;50.47;34.33;;;23.60;1.00;;;;;;5038463;28;20026;-73
2023/10/07 13:12:00;;;;;;;54.00;34.13;;;23.60;1.00;;;;;;5044358;28;20076;-73
2023/10/07 13:14:26;;;;;;;48.53;31.70;;;23.60;1.00;;;;;;5044523;28;20039;-73
2023/10/07 13:16:56;;;;;;;58.70;34.28;;;23.50;1.00;;;;;;5042671;28;20103;-73
2023/10/07 13:19:26;;;;;;;50.05;33.22;;;23.50;1.00;;;;;;5038718;28;20045;-73
2023/10/07 13:21:53;;;;;;;54.65;34.30;;;23.50;1.00;;;;;;5045046;28;20017;-73
2023/10/07 13:24:19;;;;;;;56.15;33.05;;;23.60;1.00;;;;;;5044975;28;20014;-73
2023/10/07 13:26:45;;;;;;;52.95;33.75;;;23.60;1.00;;;;;;5047584;28;20529;-73
2023/10/07 13:29:10;;;;;;;53.15;34.95;;;23.70;1.00;;;;;;5042476;28;20025;-73
2023/10/07 13:31:38;;;;;;;56.72;37.65;;;23.60;1.00;;;;;;5046099;28;20051;-73
2023/10/07 13:34:06;;;;;;;53.63;35.60;;;23.60;99.90;;;;;;5042111;28;20112;-73
2023/10/07 13:36:33;;;;;;;46.25;32.85;;;23.60;99.90;;;;;;5045646;28;20049;-73
2023/10/07 13:39:02;;;;;;;46.42;33.42;;;23.50;1.00;;;;;;5044968;28;20083;-73
2023/10/07 13:41:29;;;;;;;56.35;33.50;;;23.60;1.00;;;;;;5046388;28;20067;-73
2023/10/07 13:43:58;;;;;;;47.05;31.77;;;23.60;99.90;;;;;;5041497;28;20527;-73
2023/10/07 13:46:23;;;;;;;51.22;32.97;;;23.60;1.00;;;;;;5037247;28;20025;-73
2023/10/07 13:48:49;;;;;;;47.22;32.22;;;23.60;1.00;;;;;;5043874;28;20051;-72
2023/10/07 13:51:15;;;;;;;53.00;34.50;;;23.60;1.00;;;;;;5044734;28;20475;-73
2023/10/07 13:56:44;;;;;;;55.33;36.17;;;23.60;99.90;;;;;;5047024;28;20036;-73
2023/10/07 13:59:11;;;;;;;51.10;34.67;;;23.60;1.00;;;;;;5039352;28;20037;-75
2023/10/07 14:01:37;;;;;;;48.70;34.42;;;23.70;99.90;;;;;;5039291;28;20475;-73